createdAt,value
2022-11-14T00:00:52.400Z,17.92
2022-11-14T00:03:18.765Z,16.85
2022-11-14T00:05:46.218Z,17.00
2022-11-14T00:08:17.100Z,17.73
2022-11-14T00:10:47.753Z,17.27
2022-11-14T00:13:14.902Z,16.05
2022-11-14T00:15:41.497Z,15.45
2022-11-14T00:18:08.176Z,15.85
2022-11-14T00:20:34.491Z,14.80
2022-11-14T00:23:00.892Z,15.18
2022-11-14T00:25:27.393Z,14.70
2022-11-14T00:27:57.514Z,13.38
2022-11-14T00:30:24.081Z,13.48
2022-11-14T00:32:50.483Z,13.88
2022-11-14T00:35:17.021Z,14.88
2022-11-14T00:37:43.479Z,15.63
2022-11-14T00:40:10.057Z,13.93
2022-11-14T00:42:36.495Z,14.38
2022-11-14T00:45:03.204Z,15.25
2022-11-14T00:47:29.554Z,14.48
2022-11-14T00:49:55.896Z,15.15
2022-11-14T00:52:22.232Z,13.73
2022-11-14T00:54:48.619Z,14.65
2022-11-14T00:57:14.942Z,14.15
2022-11-14T00:59:41.304Z,14.27
2022-11-14T01:02:07.661Z,13.63
2022-11-14T01:04:34.296Z,13.32
2022-11-14T01:07:00.718Z,14.73
2022-11-14T01:09:27.180Z,14.15
2022-11-14T01:11:53.632Z,13.95
2022-11-14T01:14:20.040Z,15.43
2022-11-14T01:16:46.382Z,14.32
2022-11-14T01:19:12.729Z,16.33
2022-11-14T01:21:39.150Z,17.33
2022-11-14T01:24:06.078Z,17.50
2022-11-14T01:26:32.410Z,21.13
2022-11-14T01:28:58.982Z,21.35
2022-11-14T01:31:26.125Z,22.05
2022-11-14T01:33:53.784Z,22.63
2022-11-14T01:36:20.728Z,22.48
2022-11-14T01:38:47.136Z,21.00
2022-11-14T01:41:15.735Z,21.35
2022-11-14T01:43:43.163Z,22.75
2022-11-14T01:46:25.765Z,22.33
2022-11-14T01:48:54.217Z,21.08
2022-11-14T01:51:32.503Z,23.35
2022-11-14T01:54:02.399Z,22.35
2022-11-14T01:56:46.550Z,22.08
2022-11-14T01:59:18.025Z,21.65
2022-11-14T02:01:48.069Z,22.15
2022-11-14T02:04:27.249Z,21.60
2022-11-14T02:06:57.258Z,21.52
2022-11-14T02:09:24.109Z,21.63
2022-11-14T02:11:51.997Z,21.00
2022-11-14T02:14:18.303Z,22.23
2022-11-14T02:16:55.646Z,23.50
2022-11-14T02:19:52.306Z,22.98
2022-11-14T02:22:19.091Z,22.23
2022-11-14T02:24:46.073Z,23.00
2022-11-14T02:27:14.364Z,21.67
2022-11-14T02:29:40.879Z,21.48
2022-11-14T02:32:10.626Z,21.77
2022-11-14T02:34:37.942Z,21.75
2022-11-14T02:37:04.396Z,21.90
2022-11-14T02:39:30.799Z,23.17
2022-11-14T02:41:57.203Z,21.90
2022-11-14T02:44:23.730Z,22.55
2022-11-14T02:46:50.162Z,21.75
2022-11-14T02:49:16.532Z,22.90
2022-11-14T02:51:43.112Z,21.20
2022-11-14T02:54:09.480Z,21.38
2022-11-14T02:56:35.869Z,21.40
2022-11-14T02:59:02.184Z,22.15
2022-11-14T03:01:28.623Z,21.48
2022-11-14T03:03:55.076Z,21.08
2022-11-14T03:06:21.434Z,23.50
2022-11-14T03:08:47.740Z,21.05
2022-11-14T03:11:14.116Z,21.40
2022-11-14T03:13:40.533Z,21.00
2022-11-14T03:16:08.829Z,21.48
2022-11-14T03:18:35.833Z,20.60
2022-11-14T03:21:11.765Z,21.27
2022-11-14T03:23:38.184Z,20.98
2022-11-14T03:26:07.495Z,21.02
2022-11-14T03:28:34.340Z,22.15
2022-11-14T03:31:00.709Z,20.73
2022-11-14T03:33:27.090Z,22.33
2022-11-14T03:35:53.437Z,21.40
2022-11-14T03:38:23.103Z,22.80
2022-11-14T03:40:50.640Z,21.95
2022-11-14T03:43:17.744Z,21.77
2022-11-14T03:45:44.740Z,22.55
2022-11-14T03:48:11.562Z,22.38
2022-11-14T03:50:37.963Z,22.85
2022-11-14T03:53:04.558Z,23.38
2022-11-14T03:55:30.977Z,22.10
2022-11-14T03:57:57.328Z,23.23
2022-11-14T04:00:23.728Z,24.23
2022-11-14T04:02:50.084Z,23.95
2022-11-14T04:05:16.531Z,22.80
2022-11-14T04:07:42.867Z,22.20
2022-11-14T04:10:09.309Z,22.52
2022-11-14T04:12:35.624Z,23.10
2022-11-14T04:15:01.988Z,21.70
2022-11-14T04:17:28.352Z,22.15
2022-11-14T04:19:54.690Z,22.63
2022-11-14T04:22:21.100Z,24.13
2022-11-14T04:24:47.549Z,21.50
2022-11-14T04:27:13.911Z,22.20
2022-11-14T04:29:40.241Z,22.80
2022-11-14T04:32:06.608Z,24.30
2022-11-14T04:34:33.096Z,22.63
2022-11-14T04:36:59.490Z,22.85
2022-11-14T04:39:25.936Z,23.48
2022-11-14T04:41:52.282Z,24.00
2022-11-14T04:44:18.626Z,22.88
2022-11-14T04:46:45.027Z,23.38
2022-11-14T04:49:11.355Z,22.70
2022-11-14T04:51:37.695Z,23.92
2022-11-14T04:54:04.144Z,24.48
2022-11-14T04:56:30.537Z,23.40
2022-11-14T04:58:56.972Z,21.60
2022-11-14T05:01:23.363Z,21.50
2022-11-14T05:03:49.741Z,25.52
2022-11-14T05:06:16.247Z,23.15
2022-11-14T05:08:42.765Z,24.70
2022-11-14T05:11:14.650Z,25.05
2022-11-14T05:13:41.085Z,24.10
2022-11-14T05:16:07.618Z,24.63
2022-11-14T05:18:34.035Z,24.85
2022-11-14T05:21:01.136Z,24.98
2022-11-14T05:23:27.792Z,24.60
2022-11-14T05:26:05.716Z,23.27
2022-11-14T05:28:32.791Z,23.98
2022-11-14T05:31:04.470Z,24.67
2022-11-14T05:33:31.297Z,24.63
2022-11-14T05:36:09.145Z,26.85
2022-11-14T05:38:35.790Z,25.25
2022-11-14T05:41:13.696Z,24.75
2022-11-14T05:43:40.836Z,25.60
2022-11-14T05:46:11.021Z,23.95
2022-11-14T05:48:38.201Z,26.02
2022-11-14T05:51:06.814Z,27.08
2022-11-14T05:53:34.200Z,25.50
2022-11-14T05:56:06.514Z,26.20
2022-11-14T05:58:34.130Z,27.05
2022-11-14T06:01:08.818Z,26.35
2022-11-14T06:03:38.372Z,24.00
2022-11-14T06:06:07.162Z,25.45
2022-11-14T06:08:34.471Z,24.67
2022-11-14T06:11:06.378Z,25.70
2022-11-14T06:13:33.537Z,27.10
2022-11-14T06:16:05.027Z,25.52
2022-11-14T06:18:32.852Z,26.38
2022-11-14T06:21:08.167Z,26.02
2022-11-14T06:23:34.699Z,27.73
2022-11-14T06:26:02.901Z,27.55
2022-11-14T06:28:30.115Z,26.30
2022-11-14T06:31:00.943Z,27.55
2022-11-14T06:33:28.536Z,27.50
2022-11-14T06:35:59.389Z,26.95
2022-11-14T06:38:26.211Z,24.85
2022-11-14T06:40:52.801Z,26.52
2022-11-14T06:43:19.109Z,26.35
2022-11-14T06:45:45.520Z,26.08
2022-11-14T06:48:11.853Z,25.30
2022-11-14T06:50:38.210Z,26.23
2022-11-14T06:53:04.528Z,25.75
2022-11-14T06:55:30.953Z,24.63
2022-11-14T06:57:57.276Z,24.15
2022-11-14T07:00:23.747Z,23.83
2022-11-14T07:02:50.187Z,28.40
2022-11-14T07:05:16.590Z,28.50
2022-11-14T07:07:42.892Z,26.77
2022-11-14T07:10:09.744Z,26.40
2022-11-14T07:12:36.099Z,26.92
2022-11-14T07:15:02.416Z,27.23
2022-11-14T07:17:31.441Z,26.75
2022-11-14T07:19:58.030Z,24.83
2022-11-14T07:22:24.372Z,27.45
2022-11-14T07:24:50.707Z,26.83
2022-11-14T07:27:17.032Z,25.77
2022-11-14T07:29:43.347Z,24.73
2022-11-14T07:32:09.641Z,25.42
2022-11-14T07:34:35.949Z,26.10
2022-11-14T07:37:02.443Z,26.50
2022-11-14T07:39:28.977Z,27.58
2022-11-14T07:41:55.284Z,31.42
2022-11-14T07:44:21.608Z,28.08
2022-11-14T07:46:49.993Z,28.98
2022-11-14T07:49:17.009Z,27.48
2022-11-14T07:51:43.360Z,28.05
2022-11-14T07:54:11.920Z,28.15
2022-11-14T07:56:38.740Z,28.90
2022-11-14T07:59:05.120Z,28.70
2022-11-14T08:01:31.553Z,29.33
2022-11-14T08:03:57.938Z,30.20
2022-11-14T08:06:24.283Z,30.48
2022-11-14T08:08:50.636Z,32.15
2022-11-14T08:11:36.902Z,33.03
2022-11-14T08:14:03.301Z,31.52
2022-11-14T08:16:29.613Z,36.25
2022-11-14T08:18:55.958Z,38.35
2022-11-14T08:21:22.414Z,40.63
2022-11-14T08:23:48.812Z,35.55
2022-11-14T08:26:15.158Z,34.47
2022-11-14T08:28:41.657Z,34.17
2022-11-14T08:31:10.123Z,31.63
2022-11-14T08:33:36.469Z,32.22
2022-11-14T08:36:03.694Z,30.52
2022-11-14T08:38:31.988Z,30.00
2022-11-14T08:40:59.489Z,30.00
2022-11-14T08:43:26.339Z,31.20
2022-11-14T08:45:52.724Z,31.77
2022-11-14T08:48:19.114Z,34.45
2022-11-14T08:50:45.585Z,32.72
2022-11-14T08:53:11.928Z,31.30
2022-11-14T08:55:43.961Z,33.65
2022-11-14T08:58:10.286Z,32.90
2022-11-14T09:00:36.633Z,32.63
2022-11-14T09:03:08.632Z,33.38
2022-11-14T09:05:36.366Z,33.72
2022-11-14T09:08:03.902Z,34.42
2022-11-14T09:10:30.340Z,33.42
2022-11-14T09:13:00.756Z,33.92
2022-11-14T09:15:28.999Z,34.80
2022-11-14T09:17:56.674Z,33.50
2022-11-14T09:20:29.816Z,34.13
2022-11-14T09:23:00.025Z,33.20
2022-11-14T09:25:26.504Z,34.40
2022-11-14T09:27:53.403Z,35.58
2022-11-14T09:30:19.899Z,36.60
2022-11-14T09:32:46.333Z,33.05
2022-11-14T09:35:12.814Z,36.38
2022-11-14T09:37:39.669Z,37.42
2022-11-14T09:40:07.209Z,36.55
2022-11-14T09:43:03.366Z,35.85
2022-11-14T09:45:30.252Z,35.38
2022-11-14T09:48:06.705Z,36.78
2022-11-14T09:50:37.033Z,36.83
2022-11-14T09:53:10.356Z,38.17
2022-11-14T09:55:37.573Z,38.07
2022-11-14T09:58:05.251Z,36.03
2022-11-14T10:01:04.969Z,37.65
2022-11-14T10:04:09.350Z,38.22
2022-11-14T10:06:53.001Z,38.05
2022-11-14T10:09:58.094Z,37.47
2022-11-14T10:12:43.164Z,37.70
2022-11-14T10:15:23.945Z,38.97
2022-11-14T10:18:05.291Z,39.45
2022-11-14T10:20:44.697Z,37.70
2022-11-14T10:23:23.147Z,36.47
2022-11-14T10:26:16.126Z,34.03
2022-11-14T10:29:33.240Z,33.65
2022-11-14T10:32:18.877Z,32.50
2022-11-14T10:35:01.527Z,30.63
2022-11-14T10:37:42.296Z,29.65
2022-11-14T10:40:40.997Z,29.50
2022-11-14T10:43:18.712Z,30.10
2022-11-14T10:45:50.724Z,30.77
2022-11-14T10:48:31.533Z,29.50
2022-11-14T10:51:02.591Z,27.75
2022-11-14T10:53:47.165Z,27.25
2022-11-14T10:58:48.441Z,30.95
2022-11-14T11:01:39.696Z,27.85
2022-11-14T11:04:14.889Z,26.40
2022-11-14T11:06:41.412Z,26.88
2022-11-14T11:09:31.383Z,28.58
2022-11-14T11:12:01.672Z,26.85
2022-11-14T11:14:29.460Z,25.73
2022-11-14T11:17:15.559Z,26.40
2022-11-14T11:19:42.870Z,27.80
2022-11-14T11:22:35.090Z,26.70
2022-11-14T11:25:01.490Z,26.65
2022-11-14T11:27:29.367Z,24.42
2022-11-14T11:30:04.135Z,25.75
2022-11-14T11:32:30.688Z,24.13
2022-11-14T11:35:00.094Z,25.13
2022-11-14T11:37:35.511Z,26.25
2022-11-14T11:40:06.600Z,24.45
2022-11-14T11:43:31.677Z,25.20
2022-11-14T11:45:34.605Z,25.15
2022-11-14T11:48:08.945Z,24.38
2022-11-14T11:53:22.123Z,26.67
2022-11-14T11:55:53.248Z,24.55
2022-11-14T11:58:27.623Z,22.83
2022-11-14T12:00:57.820Z,24.02
2022-11-14T12:03:25.975Z,24.88
2022-11-14T12:05:52.334Z,25.13
2022-11-14T12:08:30.912Z,22.58
2022-11-14T12:10:59.095Z,27.27
2022-11-14T12:13:46.064Z,27.27
2022-11-14T12:16:36.610Z,26.52
2022-11-14T12:19:32.232Z,25.25
2022-11-14T12:22:29.998Z,25.73
2022-11-14T12:25:17.115Z,25.92
2022-11-14T12:28:09.865Z,24.80
2022-11-14T12:30:39.334Z,25.23
2022-11-14T12:33:16.147Z,26.13
2022-11-14T12:35:52.387Z,26.00
2022-11-14T12:38:21.054Z,24.60
2022-11-14T12:40:54.206Z,25.40
2022-11-14T12:43:37.826Z,28.08
2022-11-14T12:46:11.368Z,24.90
2022-11-14T12:48:38.930Z,20.43
2022-11-14T12:51:25.219Z,29.40
2022-11-14T12:53:52.650Z,27.58
2022-11-14T12:56:31.287Z,22.88
2022-11-14T12:59:13.350Z,22.48
2022-11-14T13:01:51.971Z,22.27
2022-11-14T13:04:42.963Z,23.92
2022-11-14T13:07:33.895Z,23.85
2022-11-14T13:10:14.638Z,23.88
2022-11-14T13:13:01.658Z,24.73
2022-11-14T13:15:49.411Z,25.02
2022-11-14T13:18:45.050Z,24.52
2022-11-14T13:21:45.614Z,25.42
2022-11-14T13:24:21.461Z,23.00
2022-11-14T13:26:50.597Z,24.17
2022-11-14T13:29:40.955Z,23.90
2022-11-14T13:32:11.805Z,23.85
2022-11-14T13:34:58.327Z,23.10
2022-11-14T13:37:42.273Z,24.17
2022-11-14T13:40:35.378Z,23.90
2022-11-14T13:43:12.697Z,23.42
2022-11-14T13:46:06.855Z,23.13
2022-11-14T13:49:03.001Z,25.95
2022-11-14T13:51:46.423Z,24.23
2022-11-14T13:54:17.845Z,23.27
2022-11-14T13:57:00.893Z,25.17
2022-11-14T13:59:48.180Z,23.60
2022-11-14T14:02:40.451Z,24.15
2022-11-14T14:05:30.041Z,24.08
2022-11-14T14:08:01.493Z,23.25
2022-11-14T14:10:59.326Z,24.85
2022-11-14T14:13:49.827Z,26.48
2022-11-14T14:16:41.650Z,26.75
2022-11-14T14:19:24.505Z,29.35
2022-11-14T14:22:07.233Z,28.63
2022-11-14T14:24:59.479Z,29.17
2022-11-14T14:28:05.118Z,27.92
2022-11-14T14:30:31.492Z,28.27
2022-11-14T14:33:07.032Z,29.70
2022-11-14T14:35:40.223Z,27.27
2022-11-14T14:38:13.206Z,30.05
2022-11-14T14:40:41.869Z,29.10
2022-11-14T14:43:22.123Z,30.80
2022-11-14T14:45:53.079Z,28.90
2022-11-14T14:48:25.085Z,29.83
2022-11-14T14:50:56.534Z,30.02
2022-11-14T14:53:25.637Z,29.33
2022-11-14T14:56:04.278Z,29.55
2022-11-14T14:58:33.479Z,31.92
2022-11-14T15:01:04.927Z,28.58
2022-11-14T15:03:40.446Z,28.63
2022-11-14T15:06:32.900Z,28.73
2022-11-14T15:09:08.124Z,30.30
2022-11-14T15:11:39.786Z,29.83
2022-11-14T15:14:06.782Z,31.33
2022-11-14T15:16:33.546Z,30.65
2022-11-14T15:19:00.660Z,29.08
2022-11-14T15:21:28.871Z,29.85
2022-11-14T15:24:10.642Z,28.85
2022-11-14T15:26:37.049Z,28.90
2022-11-14T15:29:16.577Z,31.60
2022-11-14T15:31:52.740Z,31.73
2022-11-14T15:34:26.592Z,29.88
2022-11-14T15:37:25.984Z,30.35
2022-11-14T15:39:52.442Z,30.25
2022-11-14T15:42:18.766Z,29.02
2022-11-14T15:44:46.811Z,29.00
2022-11-14T15:47:19.752Z,32.10
2022-11-14T15:50:01.010Z,42.30
2022-11-14T15:52:33.297Z,31.95
2022-11-14T15:54:59.877Z,29.75
2022-11-14T15:57:26.381Z,33.13
2022-11-14T15:59:52.870Z,31.17
2022-11-14T16:02:22.892Z,30.17
2022-11-14T16:04:51.888Z,29.08
2022-11-14T16:07:19.124Z,29.17
2022-11-14T16:09:45.674Z,31.38
2022-11-14T16:12:11.961Z,29.60
2022-11-14T16:14:38.465Z,28.50
2022-11-14T16:17:04.994Z,29.90
2022-11-14T16:19:31.751Z,29.60
2022-11-14T16:22:02.849Z,30.70
2022-11-14T16:24:34.003Z,31.48
2022-11-14T16:27:00.850Z,29.85
2022-11-14T16:29:27.350Z,30.25
2022-11-14T16:31:56.454Z,31.02
2022-11-14T16:34:25.876Z,31.05
2022-11-14T16:37:02.737Z,31.02
2022-11-14T16:39:29.808Z,31.13
2022-11-14T16:42:02.854Z,33.15
2022-11-14T16:44:30.156Z,30.58
2022-11-14T16:46:56.565Z,31.80
2022-11-14T16:49:23.024Z,32.83
2022-11-14T16:51:51.296Z,31.67
2022-11-14T16:54:19.194Z,32.60
2022-11-14T16:56:45.599Z,33.83
2022-11-14T16:59:12.313Z,32.15
2022-11-14T17:01:39.042Z,30.17
2022-11-14T17:04:05.719Z,31.75
2022-11-14T17:06:32.189Z,32.05
2022-11-14T17:08:59.871Z,33.35
2022-11-14T17:11:26.729Z,35.97
2022-11-14T17:13:55.164Z,34.85
2022-11-14T17:16:21.539Z,33.63
2022-11-14T17:18:53.794Z,34.50
2022-11-14T17:21:20.824Z,35.08
2022-11-14T17:23:47.234Z,34.00
2022-11-14T17:26:14.117Z,33.63
2022-11-14T17:28:41.443Z,35.47
2022-11-14T17:31:08.585Z,35.72
2022-11-14T17:33:35.742Z,36.88
2022-11-14T17:36:04.403Z,34.97
2022-11-14T17:38:35.031Z,39.53
2022-11-14T17:41:05.537Z,35.75
2022-11-14T17:43:39.572Z,34.55
2022-11-14T17:46:12.599Z,35.50
2022-11-14T17:48:42.019Z,34.03
2022-11-14T17:51:12.587Z,31.15
2022-11-14T17:53:39.516Z,33.38
2022-11-14T17:56:07.705Z,34.08
2022-11-14T17:58:34.204Z,34.72
2022-11-14T18:01:00.795Z,36.00
2022-11-14T18:03:27.555Z,34.03
2022-11-14T18:06:04.799Z,35.83
2022-11-14T18:08:31.483Z,36.55
2022-11-14T18:11:01.991Z,36.33
2022-11-14T18:13:28.436Z,36.90
2022-11-14T18:15:55.175Z,36.53
2022-11-14T18:18:21.513Z,37.50
2022-11-14T18:20:47.844Z,38.58
2022-11-14T18:23:14.284Z,36.03
2022-11-14T18:25:40.624Z,38.80
2022-11-14T18:28:07.084Z,38.92
2022-11-14T18:30:41.282Z,37.90
2022-11-14T18:33:08.368Z,37.50
2022-11-14T18:35:34.715Z,38.05
2022-11-14T18:38:01.129Z,35.55
2022-11-14T18:40:27.463Z,34.55
2022-11-14T18:42:54.327Z,35.88
2022-11-14T18:45:20.654Z,32.22
2022-11-14T18:47:47.035Z,33.70
2022-11-14T18:50:14.080Z,34.17
2022-11-14T18:52:40.465Z,36.15
2022-11-14T18:55:10.114Z,35.25
2022-11-14T18:57:36.581Z,38.63
2022-11-14T19:00:04.397Z,37.65
2022-11-14T19:02:31.639Z,34.85
2022-11-14T19:04:58.060Z,35.28
2022-11-14T19:07:25.969Z,32.88
2022-11-14T19:09:52.418Z,35.78
2022-11-14T19:12:18.843Z,35.05
2022-11-14T19:14:46.209Z,35.08
2022-11-14T19:17:13.481Z,37.08
2022-11-14T19:19:39.794Z,35.97
2022-11-14T19:22:06.243Z,37.25
2022-11-14T19:24:33.062Z,34.65
2022-11-14T19:26:59.383Z,34.95
2022-11-14T19:29:25.814Z,34.03
2022-11-14T19:31:53.213Z,36.25
2022-11-14T19:34:19.533Z,33.65
2022-11-14T19:36:59.233Z,34.92
2022-11-14T19:39:26.673Z,33.13
2022-11-14T19:41:53.098Z,33.38
2022-11-14T19:44:19.710Z,31.95
2022-11-14T19:46:47.869Z,32.67
2022-11-14T19:49:14.685Z,33.45
2022-11-14T19:51:41.034Z,31.52
2022-11-14T19:54:10.316Z,31.50
2022-11-14T19:56:37.058Z,32.47
2022-11-14T19:59:09.550Z,31.20
2022-11-14T20:01:44.186Z,30.75
2022-11-14T20:04:13.099Z,28.92
2022-11-14T20:06:44.047Z,29.27
2022-11-14T20:09:10.894Z,29.23
2022-11-14T20:11:37.831Z,29.33
2022-11-14T20:14:05.567Z,29.75
2022-11-14T20:16:34.181Z,30.67
2022-11-14T20:19:01.765Z,29.10
2022-11-14T20:21:32.780Z,29.80
2022-11-14T20:23:59.426Z,32.33
2022-11-14T20:26:25.885Z,33.00
2022-11-14T20:28:55.035Z,34.75
2022-11-14T20:31:25.569Z,33.38
2022-11-14T20:33:53.876Z,36.63
2022-11-14T20:36:24.185Z,33.53
2022-11-14T20:38:52.065Z,33.00
2022-11-14T20:41:19.926Z,32.13
2022-11-14T20:43:47.015Z,30.13
2022-11-14T20:46:16.150Z,29.27
2022-11-14T20:48:43.312Z,29.77
2022-11-14T20:51:19.443Z,29.38
2022-11-14T20:53:51.009Z,29.25
2022-11-14T20:56:18.114Z,30.95
2022-11-14T20:58:48.503Z,31.25
2022-11-14T21:01:16.082Z,31.23
2022-11-14T21:03:42.568Z,31.92
2022-11-14T21:06:12.252Z,29.67
2022-11-14T21:08:39.572Z,32.03
2022-11-14T21:11:18.185Z,32.30
2022-11-14T21:13:57.081Z,33.53
2022-11-14T21:16:32.413Z,30.92
2022-11-14T21:18:59.578Z,31.90
2022-11-14T21:21:27.422Z,30.88
2022-11-14T21:23:54.837Z,32.53
2022-11-14T21:26:24.535Z,32.45
2022-11-14T21:28:54.791Z,33.78
2022-11-14T21:31:31.554Z,32.65
2022-11-14T21:33:59.455Z,32.70
2022-11-14T21:36:44.260Z,32.67
2022-11-14T21:39:14.910Z,33.03
2022-11-14T21:41:42.331Z,33.63
2022-11-14T21:44:12.841Z,33.38
2022-11-14T21:46:39.242Z,34.92
2022-11-14T21:49:05.587Z,32.20
2022-11-14T21:51:32.003Z,33.03
2022-11-14T21:53:58.552Z,32.72
2022-11-14T21:56:27.593Z,33.83
2022-11-14T21:59:13.080Z,32.47
2022-11-14T22:02:02.724Z,31.88
2022-11-14T22:04:29.489Z,33.38
2022-11-14T22:06:56.082Z,29.63
2022-11-14T22:09:22.676Z,32.90
2022-11-14T22:11:49.063Z,32.15
2022-11-14T22:14:15.450Z,33.15
2022-11-14T22:16:41.876Z,32.33
2022-11-14T22:19:08.504Z,35.13
2022-11-14T22:21:34.861Z,34.35
2022-11-14T22:24:01.224Z,34.88
2022-11-14T22:26:27.797Z,36.40
2022-11-14T22:28:54.138Z,32.63
2022-11-14T22:31:22.667Z,33.03
2022-11-14T22:33:51.336Z,32.97
2022-11-14T22:36:23.664Z,35.63
2022-11-14T22:38:52.370Z,33.95
2022-11-14T22:41:28.997Z,36.42
2022-11-14T22:43:58.689Z,36.58
2022-11-14T22:46:25.362Z,37.25
2022-11-14T22:48:51.778Z,34.17
2022-11-14T22:51:21.162Z,36.50
2022-11-14T22:53:50.118Z,37.92
2022-11-14T22:56:18.372Z,38.65
2022-11-14T22:58:45.745Z,36.95
2022-11-14T23:01:14.502Z,37.03
2022-11-14T23:03:41.183Z,36.28
2022-11-14T23:06:14.283Z,39.03
2022-11-14T23:08:41.106Z,35.63
2022-11-14T23:11:10.717Z,36.67
2022-11-14T23:13:38.740Z,38.20
2022-11-14T23:16:07.859Z,38.05
2022-11-14T23:18:34.228Z,36.28
2022-11-14T23:21:12.303Z,40.28
2022-11-14T23:23:38.803Z,38.38
2022-11-14T23:26:07.533Z,42.42
2022-11-14T23:28:34.619Z,37.72
2022-11-14T23:31:01.702Z,41.63
2022-11-14T23:33:28.512Z,38.22
2022-11-14T23:35:55.024Z,39.95
2022-11-14T23:38:21.387Z,40.80
2022-11-14T23:40:59.460Z,38.83
2022-11-14T23:43:26.327Z,40.63
2022-11-14T23:45:52.790Z,38.95
2022-11-14T23:48:20.790Z,41.72
2022-11-14T23:50:55.467Z,41.58
2022-11-14T23:53:22.690Z,42.28
2022-11-14T23:55:57.269Z,42.35
2022-11-14T23:58:25.132Z,39.80
